sensor_id;sensor_type;location;lat;lon;timestamp;P1;durP1;ratioP1;P2;durP2;ratioP2
3997;SDS011;61314;53.444;9.902;2023-02-01T00:01:20;24.25;;;4.28;;
3997;SDS011;61314;53.444;9.902;2023-02-01T00:03:47;24.98;;;4.93;;
3997;SDS011;61314;53.444;9.902;2023-02-01T00:06:14;30.67;;;6.30;;
3997;SDS011;61314;53.444;9.902;2023-02-01T00:08:41;28.25;;;5.75;;
3997;SDS011;61314;53.444;9.902;2023-02-01T00:11:09;33.25;;;6.10;;
3997;SDS011;61314;53.444;9.902;2023-02-01T00:13:37;29.50;;;6.35;;
3997;SDS011;61314;53.444;9.902;2023-02-01T00:16:08;26.02;;;4.88;;
3997;SDS011;61314;53.444;9.902;2023-02-01T00:18:35;33.28;;;5.45;;
3997;SDS011;61314;53.444;9.902;2023-02-01T00:21:03;56.90;;;9.23;;
3997;SDS011;61314;53.444;9.902;2023-02-01T00:23:36;38.15;;;6.35;;
3997;SDS011;61314;53.444;9.902;2023-02-01T00:26:05;45.15;;;6.55;;
3997;SDS011;61314;53.444;9.902;2023-02-01T00:28:35;30.55;;;5.18;;
3997;SDS011;61314;53.444;9.902;2023-02-01T00:31:03;50.70;;;6.93;;
3997;SDS011;61314;53.444;9.902;2023-02-01T00:33:30;36.80;;;5.75;;
3997;SDS011;61314;53.444;9.902;2023-02-01T00:35:58;42.03;;;6.05;;
3997;SDS011;61314;53.444;9.902;2023-02-01T00:38:26;33.47;;;6.50;;
3997;SDS011;61314;53.444;9.902;2023-02-01T00:40:53;38.22;;;6.80;;
3997;SDS011;61314;53.444;9.902;2023-02-01T00:43:20;42.30;;;7.03;;
3997;SDS011;61314;53.444;9.902;2023-02-01T00:45:48;33.63;;;5.00;;
3997;SDS011;61314;53.444;9.902;2023-02-01T00:48:15;32.53;;;5.22;;
3997;SDS011;61314;53.444;9.902;2023-02-01T00:50:42;47.75;;;7.25;;
3997;SDS011;61314;53.444;9.902;2023-02-01T00:53:10;36.83;;;5.68;;
3997;SDS011;61314;53.444;9.902;2023-02-01T00:55:37;40.20;;;6.22;;
3997;SDS011;61314;53.444;9.902;2023-02-01T00:58:04;33.13;;;6.43;;
3997;SDS011;61314;53.444;9.902;2023-02-01T01:00:32;38.13;;;6.35;;
3997;SDS011;61314;53.444;9.902;2023-02-01T01:02:59;41.25;;;7.47;;
3997;SDS011;61314;53.444;9.902;2023-02-01T01:05:26;39.60;;;6.10;;
3997;SDS011;61314;53.444;9.902;2023-02-01T01:07:56;32.03;;;6.30;;
3997;SDS011;61314;53.444;9.902;2023-02-01T01:10:23;36.45;;;6.05;;
3997;SDS011;61314;53.444;9.902;2023-02-01T01:12:50;30.25;;;5.38;;
3997;SDS011;61314;53.444;9.902;2023-02-01T01:15:17;23.42;;;4.25;;
3997;SDS011;61314;53.444;9.902;2023-02-01T01:17:44;39.13;;;5.97;;
3997;SDS011;61314;53.444;9.902;2023-02-01T01:20:11;38.85;;;5.47;;
3997;SDS011;61314;53.444;9.902;2023-02-01T01:22:39;35.42;;;5.55;;
3997;SDS011;61314;53.444;9.902;2023-02-01T01:25:06;51.50;;;7.15;;
3997;SDS011;61314;53.444;9.902;2023-02-01T01:27:33;36.63;;;6.60;;
3997;SDS011;61314;53.444;9.902;2023-02-01T01:30:00;27.27;;;6.05;;
3997;SDS011;61314;53.444;9.902;2023-02-01T01:32:27;31.90;;;6.03;;
3997;SDS011;61314;53.444;9.902;2023-02-01T01:34:54;32.38;;;5.47;;
3997;SDS011;61314;53.444;9.902;2023-02-01T01:37:21;47.95;;;7.22;;
3997;SDS011;61314;53.444;9.902;2023-02-01T01:39:48;39.65;;;6.03;;
3997;SDS011;61314;53.444;9.902;2023-02-01T01:42:15;34.80;;;5.50;;
3997;SDS011;61314;53.444;9.902;2023-02-01T01:44:59;44.38;;;6.65;;
3997;SDS011;61314;53.444;9.902;2023-02-01T01:47:26;53.55;;;7.65;;
3997;SDS011;61314;53.444;9.902;2023-02-01T01:49:55;36.85;;;7.57;;
3997;SDS011;61314;53.444;9.902;2023-02-01T01:52:23;32.85;;;6.07;;
3997;SDS011;61314;53.444;9.902;2023-02-01T01:54:51;47.72;;;7.97;;
3997;SDS011;61314;53.444;9.902;2023-02-01T01:57:19;33.38;;;5.97;;
3997;SDS011;61314;53.444;9.902;2023-02-01T01:59:48;30.23;;;5.63;;
3997;SDS011;61314;53.444;9.902;2023-02-01T02:02:16;38.63;;;6.07;;
3997;SDS011;61314;53.444;9.902;2023-02-01T02:04:43;24.15;;;5.80;;
3997;SDS011;61314;53.444;9.902;2023-02-01T02:07:21;45.60;;;7.93;;
3997;SDS011;61314;53.444;9.902;2023-02-01T02:09:49;35.50;;;6.50;;
3997;SDS011;61314;53.444;9.902;2023-02-01T02:12:26;40.03;;;6.18;;
3997;SDS011;61314;53.444;9.902;2023-02-01T02:14:53;42.83;;;6.18;;
3997;SDS011;61314;53.444;9.902;2023-02-01T02:17:36;53.90;;;7.72;;
3997;SDS011;61314;53.444;9.902;2023-02-01T02:20:27;53.90;;;6.57;;
3997;SDS011;61314;53.444;9.902;2023-02-01T02:23:10;50.95;;;6.60;;
3997;SDS011;61314;53.444;9.902;2023-02-01T02:28:31;45.03;;;6.82;;
3997;SDS011;61314;53.444;9.902;2023-02-01T02:31:12;38.30;;;5.97;;
3997;SDS011;61314;53.444;9.902;2023-02-01T02:38:47;58.13;;;8.25;;
3997;SDS011;61314;53.444;9.902;2023-02-01T02:44:09;29.33;;;6.47;;
3997;SDS011;61314;53.444;9.902;2023-02-01T02:46:57;36.00;;;6.30;;
3997;SDS011;61314;53.444;9.902;2023-02-01T02:49:49;37.88;;;5.38;;
3997;SDS011;61314;53.444;9.902;2023-02-01T02:52:38;34.38;;;7.50;;
3997;SDS011;61314;53.444;9.902;2023-02-01T02:55:28;42.10;;;7.38;;
3997;SDS011;61314;53.444;9.902;2023-02-01T02:57:55;35.50;;;6.20;;
3997;SDS011;61314;53.444;9.902;2023-02-01T03:00:41;41.58;;;6.60;;
3997;SDS011;61314;53.444;9.902;2023-02-01T03:03:28;41.65;;;5.78;;
3997;SDS011;61314;53.444;9.902;2023-02-01T03:06:14;41.15;;;5.63;;
3997;SDS011;61314;53.444;9.902;2023-02-01T03:08:43;33.35;;;5.35;;
3997;SDS011;61314;53.444;9.902;2023-02-01T03:11:12;42.97;;;7.43;;
3997;SDS011;61314;53.444;9.902;2023-02-01T03:16:18;35.20;;;6.47;;
3997;SDS011;61314;53.444;9.902;2023-02-01T03:18:55;36.58;;;6.00;;
3997;SDS011;61314;53.444;9.902;2023-02-01T03:21:57;31.52;;;5.18;;
3997;SDS011;61314;53.444;9.902;2023-02-01T03:24:25;43.45;;;5.50;;
3997;SDS011;61314;53.444;9.902;2023-02-01T03:27:01;34.33;;;6.35;;
3997;SDS011;61314;53.444;9.902;2023-02-01T03:29:30;41.90;;;5.88;;
3997;SDS011;61314;53.444;9.902;2023-02-01T03:31:59;29.67;;;5.75;;
3997;SDS011;61314;53.444;9.902;2023-02-01T03:34:26;22.77;;;5.65;;
3997;SDS011;61314;53.444;9.902;2023-02-01T03:36:58;27.67;;;4.30;;
3997;SDS011;61314;53.444;9.902;2023-02-01T03:39:36;28.45;;;5.35;;
3997;SDS011;61314;53.444;9.902;2023-02-01T03:42:09;32.10;;;4.45;;
3997;SDS011;61314;53.444;9.902;2023-02-01T03:44:46;26.67;;;4.82;;
3997;SDS011;61314;53.444;9.902;2023-02-01T03:47:17;18.27;;;4.88;;
3997;SDS011;61314;53.444;9.902;2023-02-01T03:49:47;23.98;;;4.80;;
3997;SDS011;61314;53.444;9.902;2023-02-01T03:52:17;21.88;;;4.03;;
3997;SDS011;61314;53.444;9.902;2023-02-01T03:54:45;15.90;;;2.72;;
3997;SDS011;61314;53.444;9.902;2023-02-01T03:57:13;13.10;;;3.33;;
3997;SDS011;61314;53.444;9.902;2023-02-01T03:59:41;13.70;;;2.60;;
3997;SDS011;61314;53.444;9.902;2023-02-01T04:02:09;13.63;;;2.33;;
3997;SDS011;61314;53.444;9.902;2023-02-01T04:04:36;7.40;;;2.25;;
3997;SDS011;61314;53.444;9.902;2023-02-01T04:07:03;11.45;;;2.30;;
3997;SDS011;61314;53.444;9.902;2023-02-01T04:09:30;21.65;;;2.78;;
3997;SDS011;61314;53.444;9.902;2023-02-01T04:11:57;23.63;;;3.60;;
3997;SDS011;61314;53.444;9.902;2023-02-01T04:14:24;12.77;;;4.35;;
3997;SDS011;61314;53.444;9.902;2023-02-01T04:16:51;14.40;;;2.83;;
3997;SDS011;61314;53.444;9.902;2023-02-01T04:19:18;10.43;;;2.58;;
3997;SDS011;61314;53.444;9.902;2023-02-01T04:21:45;11.40;;;3.30;;
3997;SDS011;61314;53.444;9.902;2023-02-01T04:24:12;9.25;;;2.60;;
3997;SDS011;61314;53.444;9.902;2023-02-01T04:26:39;9.52;;;3.25;;
3997;SDS011;61314;53.444;9.902;2023-02-01T04:29:07;16.80;;;2.50;;
3997;SDS011;61314;53.444;9.902;2023-02-01T04:31:35;12.68;;;2.80;;
3997;SDS011;61314;53.444;9.902;2023-02-01T04:34:02;14.57;;;2.45;;
3997;SDS011;61314;53.444;9.902;2023-02-01T04:36:29;12.25;;;3.13;;
3997;SDS011;61314;53.444;9.902;2023-02-01T04:38:56;8.48;;;2.47;;
3997;SDS011;61314;53.444;9.902;2023-02-01T04:41:23;22.08;;;4.70;;
3997;SDS011;61314;53.444;9.902;2023-02-01T04:43:51;17.33;;;3.20;;
3997;SDS011;61314;53.444;9.902;2023-02-01T04:46:18;21.02;;;3.80;;
3997;SDS011;61314;53.444;9.902;2023-02-01T04:48:45;22.35;;;3.22;;
3997;SDS011;61314;53.444;9.902;2023-02-01T04:51:12;9.38;;;2.13;;
3997;SDS011;61314;53.444;9.902;2023-02-01T04:53:41;13.38;;;2.92;;
3997;SDS011;61314;53.444;9.902;2023-02-01T04:56:08;17.63;;;2.67;;
3997;SDS011;61314;53.444;9.902;2023-02-01T04:58:35;13.30;;;2.33;;
3997;SDS011;61314;53.444;9.902;2023-02-01T05:01:05;11.27;;;2.20;;
3997;SDS011;61314;53.444;9.902;2023-02-01T05:03:33;11.85;;;2.75;;
3997;SDS011;61314;53.444;9.902;2023-02-01T05:06:00;8.57;;;1.90;;
3997;SDS011;61314;53.444;9.902;2023-02-01T05:08:27;5.82;;;1.30;;
3997;SDS011;61314;53.444;9.902;2023-02-01T05:10:54;7.57;;;1.80;;
3997;SDS011;61314;53.444;9.902;2023-02-01T05:13:21;6.10;;;1.10;;
3997;SDS011;61314;53.444;9.902;2023-02-01T05:16:07;6.15;;;1.20;;
3997;SDS011;61314;53.444;9.902;2023-02-01T05:18:34;1.90;;;1.05;;
3997;SDS011;61314;53.444;9.902;2023-02-01T05:21:01;3.45;;;1.10;;
3997;SDS011;61314;53.444;9.902;2023-02-01T05:23:28;2.70;;;2.00;;
3997;SDS011;61314;53.444;9.902;2023-02-01T05:26:01;2.83;;;1.05;;
3997;SDS011;61314;53.444;9.902;2023-02-01T05:28:29;2.75;;;0.80;;
3997;SDS011;61314;53.444;9.902;2023-02-01T05:30:56;1.45;;;0.70;;
3997;SDS011;61314;53.444;9.902;2023-02-01T05:33:23;2.20;;;1.45;;
3997;SDS011;61314;53.444;9.902;2023-02-01T05:35:50;2.92;;;1.00;;
3997;SDS011;61314;53.444;9.902;2023-02-01T05:38:17;4.00;;;1.00;;
3997;SDS011;61314;53.444;9.902;2023-02-01T05:40:45;4.25;;;1.00;;
3997;SDS011;61314;53.444;9.902;2023-02-01T05:43:15;1.65;;;1.00;;
3997;SDS011;61314;53.444;9.902;2023-02-01T05:45:42;4.70;;;0.70;;
3997;SDS011;61314;53.444;9.902;2023-02-01T05:48:09;1.20;;;0.60;;
3997;SDS011;61314;53.444;9.902;2023-02-01T05:50:36;2.08;;;0.70;;
3997;SDS011;61314;53.444;9.902;2023-02-01T05:53:04;1.85;;;0.60;;
3997;SDS011;61314;53.444;9.902;2023-02-01T05:55:31;3.03;;;0.80;;
3997;SDS011;61314;53.444;9.902;2023-02-01T05:57:58;2.47;;;0.80;;
3997;SDS011;61314;53.444;9.902;2023-02-01T06:00:25;2.00;;;1.02;;
3997;SDS011;61314;53.444;9.902;2023-02-01T06:02:53;5.75;;;1.27;;
3997;SDS011;61314;53.444;9.902;2023-02-01T06:05:20;2.13;;;1.40;;
3997;SDS011;61314;53.444;9.902;2023-02-01T06:07:47;3.22;;;0.77;;
3997;SDS011;61314;53.444;9.902;2023-02-01T06:10:16;7.78;;;1.00;;
3997;SDS011;61314;53.444;9.902;2023-02-01T06:12:43;5.60;;;1.00;;
3997;SDS011;61314;53.444;9.902;2023-02-01T06:15:11;11.45;;;1.98;;
3997;SDS011;61314;53.444;9.902;2023-02-01T06:17:38;7.53;;;1.80;;
3997;SDS011;61314;53.444;9.902;2023-02-01T06:20:07;4.68;;;1.60;;
3997;SDS011;61314;53.444;9.902;2023-02-01T06:22:37;11.25;;;1.73;;
3997;SDS011;61314;53.444;9.902;2023-02-01T06:25:04;5.18;;;2.30;;
3997;SDS011;61314;53.444;9.902;2023-02-01T06:27:32;8.35;;;2.00;;
3997;SDS011;61314;53.444;9.902;2023-02-01T06:29:59;5.50;;;1.73;;
3997;SDS011;61314;53.444;9.902;2023-02-01T06:32:26;11.05;;;1.95;;
3997;SDS011;61314;53.444;9.902;2023-02-01T06:34:53;27.40;;;2.80;;
3997;SDS011;61314;53.444;9.902;2023-02-01T06:37:22;24.25;;;3.67;;
3997;SDS011;61314;53.444;9.902;2023-02-01T06:39:50;17.55;;;2.60;;
3997;SDS011;61314;53.444;9.902;2023-02-01T06:42:17;7.13;;;2.30;;
3997;SDS011;61314;53.444;9.902;2023-02-01T06:44:44;13.75;;;3.80;;
3997;SDS011;61314;53.444;9.902;2023-02-01T06:47:11;12.43;;;3.33;;
3997;SDS011;61314;53.444;9.902;2023-02-01T06:49:38;25.27;;;3.53;;
3997;SDS011;61314;53.444;9.902;2023-02-01T06:52:06;14.88;;;2.72;;
3997;SDS011;61314;53.444;9.902;2023-02-01T06:54:33;11.10;;;2.78;;
3997;SDS011;61314;53.444;9.902;2023-02-01T06:57:03;7.60;;;2.70;;
3997;SDS011;61314;53.444;9.902;2023-02-01T06:59:30;13.13;;;3.00;;
3997;SDS011;61314;53.444;9.902;2023-02-01T07:01:57;12.18;;;2.38;;
3997;SDS011;61314;53.444;9.902;2023-02-01T07:04:24;13.63;;;2.90;;
3997;SDS011;61314;53.444;9.902;2023-02-01T07:06:51;6.95;;;2.35;;
3997;SDS011;61314;53.444;9.902;2023-02-01T07:09:18;9.05;;;2.28;;
3997;SDS011;61314;53.444;9.902;2023-02-01T07:11:45;11.98;;;2.88;;
3997;SDS011;61314;53.444;9.902;2023-02-01T07:14:13;13.98;;;2.92;;
3997;SDS011;61314;53.444;9.902;2023-02-01T07:16:40;27.25;;;4.60;;
3997;SDS011;61314;53.444;9.902;2023-02-01T07:19:07;25.42;;;3.97;;
3997;SDS011;61314;53.444;9.902;2023-02-01T07:21:34;19.30;;;3.85;;
3997;SDS011;61314;53.444;9.902;2023-02-01T07:24:01;23.23;;;4.13;;
3997;SDS011;61314;53.444;9.902;2023-02-01T07:26:28;29.63;;;5.80;;
3997;SDS011;61314;53.444;9.902;2023-02-01T07:28:55;31.15;;;4.55;;
3997;SDS011;61314;53.444;9.902;2023-02-01T07:31:22;23.90;;;4.50;;
3997;SDS011;61314;53.444;9.902;2023-02-01T07:33:52;31.67;;;5.28;;
3997;SDS011;61314;53.444;9.902;2023-02-01T07:36:20;27.10;;;5.13;;
3997;SDS011;61314;53.444;9.902;2023-02-01T07:38:47;37.22;;;5.50;;
3997;SDS011;61314;53.444;9.902;2023-02-01T07:41:15;39.75;;;5.30;;
3997;SDS011;61314;53.444;9.902;2023-02-01T07:43:42;37.90;;;5.82;;
3997;SDS011;61314;53.444;9.902;2023-02-01T07:46:09;20.15;;;4.93;;
3997;SDS011;61314;53.444;9.902;2023-02-01T07:48:36;31.88;;;4.95;;
3997;SDS011;61314;53.444;9.902;2023-02-01T07:51:11;35.13;;;5.07;;
3997;SDS011;61314;53.444;9.902;2023-02-01T07:53:38;32.10;;;5.45;;
3997;SDS011;61314;53.444;9.902;2023-02-01T07:56:10;31.85;;;5.45;;
3997;SDS011;61314;53.444;9.902;2023-02-01T07:58:37;35.63;;;6.97;;
3997;SDS011;61314;53.444;9.902;2023-02-01T08:01:04;34.33;;;5.45;;
3997;SDS011;61314;53.444;9.902;2023-02-01T08:03:47;33.78;;;5.35;;
3997;SDS011;61314;53.444;9.902;2023-02-01T08:06:14;29.38;;;5.78;;
3997;SDS011;61314;53.444;9.902;2023-02-01T08:08:42;30.75;;;6.10;;
3997;SDS011;61314;53.444;9.902;2023-02-01T08:11:11;36.78;;;4.53;;
3997;SDS011;61314;53.444;9.902;2023-02-01T08:13:38;35.15;;;5.47;;
3997;SDS011;61314;53.444;9.902;2023-02-01T08:16:06;30.30;;;5.00;;
3997;SDS011;61314;53.444;9.902;2023-02-01T08:18:34;34.13;;;4.55;;
3997;SDS011;61314;53.444;9.902;2023-02-01T08:21:02;38.97;;;6.00;;
3997;SDS011;61314;53.444;9.902;2023-02-01T08:23:30;23.15;;;4.20;;
3997;SDS011;61314;53.444;9.902;2023-02-01T08:26:13;43.20;;;7.20;;
3997;SDS011;61314;53.444;9.902;2023-02-01T08:28:42;43.97;;;5.68;;
3997;SDS011;61314;53.444;9.902;2023-02-01T08:31:11;26.10;;;5.35;;
3997;SDS011;61314;53.444;9.902;2023-02-01T08:33:38;40.30;;;6.25;;
3997;SDS011;61314;53.444;9.902;2023-02-01T08:36:06;37.78;;;5.70;;
3997;SDS011;61314;53.444;9.902;2023-02-01T08:38:34;41.75;;;8.40;;
3997;SDS011;61314;53.444;9.902;2023-02-01T08:41:06;25.75;;;6.10;;
3997;SDS011;61314;53.444;9.902;2023-02-01T08:43:33;23.77;;;4.80;;
3997;SDS011;61314;53.444;9.902;2023-02-01T08:46:01;37.47;;;6.45;;
3997;SDS011;61314;53.444;9.902;2023-02-01T08:48:28;26.27;;;5.25;;
3997;SDS011;61314;53.444;9.902;2023-02-01T08:50:55;38.40;;;6.45;;
3997;SDS011;61314;53.444;9.902;2023-02-01T08:53:22;36.30;;;6.35;;
3997;SDS011;61314;53.444;9.902;2023-02-01T08:55:49;37.30;;;6.55;;
3997;SDS011;61314;53.444;9.902;2023-02-01T08:58:16;49.05;;;6.30;;
3997;SDS011;61314;53.444;9.902;2023-02-01T09:00:44;42.85;;;5.22;;
3997;SDS011;61314;53.444;9.902;2023-02-01T09:03:11;25.92;;;5.00;;
3997;SDS011;61314;53.444;9.902;2023-02-01T09:05:38;37.50;;;6.32;;
3997;SDS011;61314;53.444;9.902;2023-02-01T09:08:15;34.92;;;5.00;;
3997;SDS011;61314;53.444;9.902;2023-02-01T09:10:42;46.33;;;5.60;;
3997;SDS011;61314;53.444;9.902;2023-02-01T09:13:09;37.95;;;7.40;;
3997;SDS011;61314;53.444;9.902;2023-02-01T09:15:37;34.78;;;6.68;;
3997;SDS011;61314;53.444;9.902;2023-02-01T09:18:04;40.72;;;5.75;;
3997;SDS011;61314;53.444;9.902;2023-02-01T09:20:31;33.67;;;5.00;;
3997;SDS011;61314;53.444;9.902;2023-02-01T09:22:58;41.03;;;5.18;;
3997;SDS011;61314;53.444;9.902;2023-02-01T09:25:26;46.60;;;5.30;;
3997;SDS011;61314;53.444;9.902;2023-02-01T09:27:53;30.00;;;4.65;;
3997;SDS011;61314;53.444;9.902;2023-02-01T09:30:20;33.55;;;5.35;;
3997;SDS011;61314;53.444;9.902;2023-02-01T09:32:48;37.75;;;6.25;;
3997;SDS011;61314;53.444;9.902;2023-02-01T09:35:15;37.42;;;5.47;;
3997;SDS011;61314;53.444;9.902;2023-02-01T09:37:42;29.38;;;4.78;;
3997;SDS011;61314;53.444;9.902;2023-02-01T09:40:12;30.52;;;5.85;;
3997;SDS011;61314;53.444;9.902;2023-02-01T09:48:15;26.95;;;5.25;;
3997;SDS011;61314;53.444;9.902;2023-02-01T09:50:50;42.58;;;6.80;;
3997;SDS011;61314;53.444;9.902;2023-02-01T09:53:55;29.42;;;5.72;;
3997;SDS011;61314;53.444;9.902;2023-02-01T09:56:14;27.77;;;6.00;;
3997;SDS011;61314;53.444;9.902;2023-02-01T09:58:51;30.83;;;4.65;;
3997;SDS011;61314;53.444;9.902;2023-02-01T10:01:23;26.60;;;5.13;;
3997;SDS011;61314;53.444;9.902;2023-02-01T10:03:57;30.08;;;5.28;;
3997;SDS011;61314;53.444;9.902;2023-02-01T10:09:17;23.00;;;4.47;;
3997;SDS011;61314;53.444;9.902;2023-02-01T10:11:48;17.08;;;4.75;;
3997;SDS011;61314;53.444;9.902;2023-02-01T10:16:52;38.60;;;5.30;;
3997;SDS011;61314;53.444;9.902;2023-02-01T10:19:30;33.00;;;5.20;;
3997;SDS011;61314;53.444;9.902;2023-02-01T10:22:02;20.80;;;6.05;;
3997;SDS011;61314;53.444;9.902;2023-02-01T10:24:36;28.42;;;4.75;;
3997;SDS011;61314;53.444;9.902;2023-02-01T10:27:14;29.33;;;4.13;;
3997;SDS011;61314;53.444;9.902;2023-02-01T10:29:44;44.28;;;5.20;;
3997;SDS011;61314;53.444;9.902;2023-02-01T10:32:17;25.23;;;5.43;;
3997;SDS011;61314;53.444;9.902;2023-02-01T10:34:45;38.58;;;4.93;;
3997;SDS011;61314;53.444;9.902;2023-02-01T10:39:46;33.22;;;6.55;;
3997;SDS011;61314;53.444;9.902;2023-02-01T10:42:13;31.38;;;4.65;;
3997;SDS011;61314;53.444;9.902;2023-02-01T10:44:42;31.52;;;4.68;;
3997;SDS011;61314;53.444;9.902;2023-02-01T10:47:11;27.15;;;4.53;;
3997;SDS011;61314;53.444;9.902;2023-02-01T10:49:39;32.80;;;5.68;;
3997;SDS011;61314;53.444;9.902;2023-02-01T10:52:12;26.95;;;4.55;;
3997;SDS011;61314;53.444;9.902;2023-02-01T10:54:40;23.08;;;4.43;;
3997;SDS011;61314;53.444;9.902;2023-02-01T10:57:29;16.05;;;4.00;;
3997;SDS011;61314;53.444;9.902;2023-02-01T10:59:58;31.05;;;5.28;;
3997;SDS011;61314;53.444;9.902;2023-02-01T11:02:30;32.45;;;5.72;;
3997;SDS011;61314;53.444;9.902;2023-02-01T11:05:03;30.08;;;5.25;;
3997;SDS011;61314;53.444;9.902;2023-02-01T11:07:32;22.80;;;4.10;;
3997;SDS011;61314;53.444;9.902;2023-02-01T11:09:59;27.70;;;5.00;;
3997;SDS011;61314;53.444;9.902;2023-02-01T11:12:29;36.45;;;5.40;;
3997;SDS011;61314;53.444;9.902;2023-02-01T11:14:58;34.88;;;6.10;;
3997;SDS011;61314;53.444;9.902;2023-02-01T11:17:27;23.35;;;4.28;;
3997;SDS011;61314;53.444;9.902;2023-02-01T11:20:15;29.85;;;5.55;;
3997;SDS011;61314;53.444;9.902;2023-02-01T11:22:49;24.63;;;5.35;;
3997;SDS011;61314;53.444;9.902;2023-02-01T11:25:19;25.98;;;6.03;;
3997;SDS011;61314;53.444;9.902;2023-02-01T11:27:49;25.02;;;5.05;;
3997;SDS011;61314;53.444;9.902;2023-02-01T11:32:57;32.65;;;4.70;;
3997;SDS011;61314;53.444;9.902;2023-02-01T11:35:24;23.63;;;4.75;;
3997;SDS011;61314;53.444;9.902;2023-02-01T11:37:54;19.65;;;3.50;;
3997;SDS011;61314;53.444;9.902;2023-02-01T11:42:56;28.10;;;4.22;;
3997;SDS011;61314;53.444;9.902;2023-02-01T11:47:51;26.80;;;4.43;;
3997;SDS011;61314;53.444;9.902;2023-02-01T11:50:22;33.80;;;6.35;;
3997;SDS011;61314;53.444;9.902;2023-02-01T11:53:10;25.70;;;4.38;;
3997;SDS011;61314;53.444;9.902;2023-02-01T11:55:43;12.52;;;4.00;;
3997;SDS011;61314;53.444;9.902;2023-02-01T12:03:49;17.77;;;3.97;;
3997;SDS011;61314;53.444;9.902;2023-02-01T12:06:28;18.90;;;4.70;;
3997;SDS011;61314;53.444;9.902;2023-02-01T12:29:36;8.50;;;2.10;;
3997;SDS011;61314;53.444;9.902;2023-02-01T12:32:09;15.32;;;2.55;;
3997;SDS011;61314;53.444;9.902;2023-02-01T12:37:12;5.18;;;2.25;;
3997;SDS011;61314;53.444;9.902;2023-02-01T12:42:13;1.25;;;0.95;;
3997;SDS011;61314;53.444;9.902;2023-02-01T12:47:17;1.88;;;0.93;;
3997;SDS011;61314;53.444;9.902;2023-02-01T12:52:42;1.70;;;1.02;;
3997;SDS011;61314;53.444;9.902;2023-02-01T12:55:20;1.52;;;0.60;;
3997;SDS011;61314;53.444;9.902;2023-02-01T12:57:52;1.00;;;0.73;;
3997;SDS011;61314;53.444;9.902;2023-02-01T13:00:35;1.10;;;0.50;;
3997;SDS011;61314;53.444;9.902;2023-02-01T13:03:05;2.08;;;0.60;;
3997;SDS011;61314;53.444;9.902;2023-02-01T13:05:43;0.90;;;0.50;;
3997;SDS011;61314;53.444;9.902;2023-02-01T13:08:13;2.05;;;0.60;;
3997;SDS011;61314;53.444;9.902;2023-02-01T13:10:52;1.00;;;0.60;;
3997;SDS011;61314;53.444;9.902;2023-02-01T13:13:30;1.63;;;0.85;;
3997;SDS011;61314;53.444;9.902;2023-02-01T13:18:46;3.10;;;1.30;;
3997;SDS011;61314;53.444;9.902;2023-02-01T13:23:41;1.40;;;1.10;;
3997;SDS011;61314;53.444;9.902;2023-02-01T13:26:11;1.90;;;0.70;;
3997;SDS011;61314;53.444;9.902;2023-02-01T13:28:51;1.10;;;0.68;;
3997;SDS011;61314;53.444;9.902;2023-02-01T13:36:58;2.60;;;0.60;;
3997;SDS011;61314;53.444;9.902;2023-02-01T13:42:25;0.90;;;0.50;;
3997;SDS011;61314;53.444;9.902;2023-02-01T13:44:59;4.00;;;1.00;;
3997;SDS011;61314;53.444;9.902;2023-02-01T13:49:58;1.15;;;0.80;;
3997;SDS011;61314;53.444;9.902;2023-02-01T13:52:43;3.35;;;1.10;;
3997;SDS011;61314;53.444;9.902;2023-02-01T13:57:47;4.10;;;1.00;;
3997;SDS011;61314;53.444;9.902;2023-02-01T14:00:28;1.98;;;1.15;;
3997;SDS011;61314;53.444;9.902;2023-02-01T14:05:54;1.95;;;1.10;;
3997;SDS011;61314;53.444;9.902;2023-02-01T14:08:15;3.08;;;1.90;;
3997;SDS011;61314;53.444;9.902;2023-02-01T14:10:48;1.27;;;1.10;;
3997;SDS011;61314;53.444;9.902;2023-02-01T14:13:30;11.90;;;1.60;;
3997;SDS011;61314;53.444;9.902;2023-02-01T14:34:18;21.77;;;2.55;;
3997;SDS011;61314;53.444;9.902;2023-02-01T14:36:50;9.35;;;2.88;;
3997;SDS011;61314;53.444;9.902;2023-02-01T14:39:23;7.32;;;2.17;;
3997;SDS011;61314;53.444;9.902;2023-02-01T14:41:54;9.63;;;2.75;;
3997;SDS011;61314;53.444;9.902;2023-02-01T14:44:28;11.00;;;2.00;;
3997;SDS011;61314;53.444;9.902;2023-02-01T14:47:07;8.05;;;1.15;;
3997;SDS011;61314;53.444;9.902;2023-02-01T14:52:22;3.20;;;0.95;;
3997;SDS011;61314;53.444;9.902;2023-02-01T14:54:53;10.15;;;1.40;;
3997;SDS011;61314;53.444;9.902;2023-02-01T14:57:22;4.82;;;1.17;;
3997;SDS011;61314;53.444;9.902;2023-02-01T14:59:54;2.95;;;1.33;;
3997;SDS011;61314;53.444;9.902;2023-02-01T15:02:25;6.38;;;1.30;;
3997;SDS011;61314;53.444;9.902;2023-02-01T15:04:54;4.18;;;1.65;;
3997;SDS011;61314;53.444;9.902;2023-02-01T15:07:22;10.48;;;2.05;;
3997;SDS011;61314;53.444;9.902;2023-02-01T15:09:50;9.52;;;1.95;;
3997;SDS011;61314;53.444;9.902;2023-02-01T15:12:23;9.27;;;2.45;;
3997;SDS011;61314;53.444;9.902;2023-02-01T15:15:05;6.53;;;2.05;;
3997;SDS011;61314;53.444;9.902;2023-02-01T15:17:36;13.30;;;1.90;;
3997;SDS011;61314;53.444;9.902;2023-02-01T15:20:11;7.43;;;1.80;;
3997;SDS011;61314;53.444;9.902;2023-02-01T15:22:39;11.90;;;1.92;;
3997;SDS011;61314;53.444;9.902;2023-02-01T15:25:18;8.57;;;1.75;;
3997;SDS011;61314;53.444;9.902;2023-02-01T15:27:46;12.45;;;2.03;;
3997;SDS011;61314;53.444;9.902;2023-02-01T15:30:27;7.53;;;2.40;;
3997;SDS011;61314;53.444;9.902;2023-02-01T15:35:41;9.48;;;2.45;;
3997;SDS011;61314;53.444;9.902;2023-02-01T15:43:29;18.33;;;2.70;;
3997;SDS011;61314;53.444;9.902;2023-02-01T15:45:57;17.77;;;3.45;;
3997;SDS011;61314;53.444;9.902;2023-02-01T15:48:26;22.60;;;2.70;;
3997;SDS011;61314;53.444;9.902;2023-02-01T15:50:53;19.10;;;2.95;;
3997;SDS011;61314;53.444;9.902;2023-02-01T15:53:23;30.75;;;3.35;;
3997;SDS011;61314;53.444;9.902;2023-02-01T15:55:51;13.27;;;3.22;;
3997;SDS011;61314;53.444;9.902;2023-02-01T15:58:20;23.10;;;3.70;;
3997;SDS011;61314;53.444;9.902;2023-02-01T16:00:51;22.55;;;3.83;;
3997;SDS011;61314;53.444;9.902;2023-02-01T16:03:27;16.67;;;3.28;;
3997;SDS011;61314;53.444;9.902;2023-02-01T16:05:55;20.70;;;3.25;;
3997;SDS011;61314;53.444;9.902;2023-02-01T16:08:23;34.50;;;6.15;;
3997;SDS011;61314;53.444;9.902;2023-02-01T16:10:51;17.85;;;4.53;;
3997;SDS011;61314;53.444;9.902;2023-02-01T16:13:19;22.70;;;4.85;;
3997;SDS011;61314;53.444;9.902;2023-02-01T16:15:47;27.00;;;7.32;;
3997;SDS011;61314;53.444;9.902;2023-02-01T16:18:14;29.05;;;5.50;;
3997;SDS011;61314;53.444;9.902;2023-02-01T16:20:44;26.63;;;6.10;;
3997;SDS011;61314;53.444;9.902;2023-02-01T16:23:11;38.92;;;5.40;;
3997;SDS011;61314;53.444;9.902;2023-02-01T16:25:39;31.70;;;4.50;;
3997;SDS011;61314;53.444;9.902;2023-02-01T16:28:06;33.72;;;6.32;;
3997;SDS011;61314;53.444;9.902;2023-02-01T16:30:34;27.15;;;5.63;;
3997;SDS011;61314;53.444;9.902;2023-02-01T16:33:02;38.25;;;5.00;;
3997;SDS011;61314;53.444;9.902;2023-02-01T16:35:32;34.17;;;5.35;;
3997;SDS011;61314;53.444;9.902;2023-02-01T16:38:09;34.88;;;6.30;;
3997;SDS011;61314;53.444;9.902;2023-02-01T16:40:39;27.40;;;5.47;;
3997;SDS011;61314;53.444;9.902;2023-02-01T16:45:43;29.98;;;6.07;;
3997;SDS011;61314;53.444;9.902;2023-02-01T16:48:21;42.95;;;6.38;;
3997;SDS011;61314;53.444;9.902;2023-02-01T16:50:50;40.33;;;5.97;;
3997;SDS011;61314;53.444;9.902;2023-02-01T16:53:18;34.97;;;6.78;;
3997;SDS011;61314;53.444;9.902;2023-02-01T16:55:45;44.30;;;6.60;;
3997;SDS011;61314;53.444;9.902;2023-02-01T16:58:18;45.97;;;5.57;;
3997;SDS011;61314;53.444;9.902;2023-02-01T17:00:46;32.42;;;5.75;;
3997;SDS011;61314;53.444;9.902;2023-02-01T17:03:14;43.60;;;7.45;;
3997;SDS011;61314;53.444;9.902;2023-02-01T17:05:43;49.67;;;9.10;;
3997;SDS011;61314;53.444;9.902;2023-02-01T17:08:12;40.42;;;8.25;;
3997;SDS011;61314;53.444;9.902;2023-02-01T17:10:40;50.75;;;8.05;;
3997;SDS011;61314;53.444;9.902;2023-02-01T17:13:12;45.67;;;6.15;;